createdAt,value
2023-02-24T00:02:04.823Z,3.42
2023-02-24T00:04:35.609Z,3.37
2023-02-24T00:07:04.105Z,3.31
2023-02-24T00:09:33.618Z,3.28
2023-02-24T00:12:09.044Z,3.27
2023-02-24T00:14:38.715Z,3.21
2023-02-24T00:17:09.935Z,3.12
2023-02-24T00:19:38.094Z,3.06
2023-02-24T00:22:07.818Z,3.00
2023-02-24T00:24:36.124Z,2.93
2023-02-24T00:27:11.449Z,2.86
2023-02-24T00:29:40.450Z,2.81
2023-02-24T00:32:13.264Z,2.77
2023-02-24T00:34:41.582Z,2.76
2023-02-24T00:37:09.226Z,2.74
2023-02-24T00:39:41.653Z,2.76
2023-02-24T00:42:12.011Z,2.75
2023-02-24T00:44:43.875Z,2.75
2023-02-24T00:47:12.195Z,2.75
2023-02-24T00:49:42.925Z,2.71
2023-02-24T00:52:17.261Z,2.67
2023-02-24T00:54:46.412Z,2.66
2023-02-24T00:57:14.999Z,2.63
2023-02-24T00:59:47.583Z,2.61
2023-02-24T01:02:15.824Z,2.58
2023-02-24T01:04:45.016Z,2.54
2023-02-24T01:07:14.226Z,2.53
2023-02-24T01:09:42.023Z,2.51
2023-02-24T01:12:30.683Z,2.51
2023-02-24T01:14:58.221Z,2.52
2023-02-24T01:17:25.649Z,2.54
2023-02-24T01:19:53.250Z,2.56
2023-02-24T01:22:23.853Z,2.59
2023-02-24T01:24:51.240Z,2.60
2023-02-24T01:27:19.666Z,2.61
2023-02-24T01:29:48.443Z,2.59
2023-02-24T01:32:19.561Z,2.58
2023-02-24T01:34:47.727Z,2.54
2023-02-24T01:37:16.701Z,2.47
2023-02-24T01:39:45.480Z,2.41
2023-02-24T01:42:19.767Z,2.34
2023-02-24T01:44:47.805Z,2.33
2023-02-24T01:47:29.254Z,2.29
2023-02-24T01:49:57.880Z,2.25
2023-02-24T01:52:30.579Z,2.23
2023-02-24T01:55:13.432Z,2.21
2023-02-24T01:57:42.639Z,2.21
2023-02-24T02:00:31.660Z,2.20
2023-02-24T02:03:06.112Z,2.19
2023-02-24T02:05:33.913Z,2.21
2023-02-24T02:08:01.985Z,2.20
2023-02-24T02:10:29.800Z,2.20
2023-02-24T02:12:57.456Z,2.20
2023-02-24T02:15:29.072Z,2.21
2023-02-24T02:17:59.397Z,2.24
2023-02-24T02:20:57.538Z,2.26
2023-02-24T02:24:13.323Z,2.28
2023-02-24T02:27:21.091Z,2.32
2023-02-24T02:30:24.004Z,2.34
2023-02-24T02:33:07.485Z,2.39
2023-02-24T02:35:42.832Z,2.42
2023-02-24T02:38:26.422Z,2.47
2023-02-24T02:41:15.405Z,2.50
2023-02-24T02:44:03.144Z,2.54
2023-02-24T02:47:13.828Z,2.57
2023-02-24T02:50:12.277Z,2.58
2023-02-24T02:52:58.509Z,2.60
2023-02-24T02:55:59.555Z,2.63
2023-02-24T02:58:34.761Z,2.65
2023-02-24T03:01:07.341Z,2.67
2023-02-24T03:03:41.247Z,2.66
2023-02-24T03:06:17.880Z,2.67
2023-02-24T03:09:12.450Z,2.68
2023-02-24T03:11:42.031Z,2.70
2023-02-24T03:14:14.580Z,2.73
2023-02-24T03:16:46.205Z,2.72
2023-02-24T03:19:17.675Z,2.72
2023-02-24T03:21:50.110Z,2.72
2023-02-24T03:24:17.735Z,2.72
2023-02-24T03:27:02.200Z,2.72
2023-02-24T03:29:55.294Z,2.73
2023-02-24T03:32:43.869Z,2.74
2023-02-24T03:35:17.592Z,2.75
2023-02-24T03:37:47.462Z,2.77
2023-02-24T03:40:17.015Z,2.79
2023-02-24T03:42:49.670Z,2.80
2023-02-24T03:45:18.396Z,2.80
2023-02-24T03:47:46.734Z,2.81
2023-02-24T03:50:20.084Z,2.83
2023-02-24T03:52:52.710Z,2.84
2023-02-24T03:55:58.896Z,2.84
2023-02-24T03:59:05.051Z,2.85
2023-02-24T04:01:55.792Z,2.87
2023-02-24T04:04:35.518Z,2.89
2023-02-24T04:07:35.847Z,2.89
2023-02-24T04:10:36.280Z,2.90
2023-02-24T04:13:35.336Z,2.91
2023-02-24T04:16:29.940Z,2.93
2023-02-24T04:19:03.954Z,2.96
2023-02-24T04:21:37.354Z,2.98
2023-02-24T04:24:11.547Z,3.00
2023-02-24T04:26:40.701Z,3.02
2023-02-24T04:29:17.521Z,3.03
2023-02-24T04:31:48.352Z,3.03
2023-02-24T04:34:20.382Z,3.04
2023-02-24T04:36:50.000Z,3.06
2023-02-24T04:39:21.344Z,3.06
2023-02-24T04:41:52.773Z,3.05
2023-02-24T04:44:21.948Z,3.07
2023-02-24T04:46:51.383Z,3.08
2023-02-24T04:49:20.466Z,3.09
2023-02-24T04:51:48.042Z,3.09
2023-02-24T04:54:17.663Z,3.10
2023-02-24T04:56:47.982Z,3.10
2023-02-24T04:59:18.301Z,3.11
2023-02-24T05:01:46.222Z,3.13
2023-02-24T05:04:14.476Z,3.11
2023-02-24T05:06:44.234Z,3.12
2023-02-24T05:09:19.054Z,3.11
2023-02-24T05:11:51.577Z,3.09
2023-02-24T05:14:25.001Z,3.10
2023-02-24T05:16:52.954Z,3.10
2023-02-24T05:19:39.075Z,3.09
2023-02-24T05:22:11.601Z,3.09
2023-02-24T05:24:38.919Z,3.10
2023-02-24T05:27:06.195Z,3.10
2023-02-24T05:29:35.574Z,3.10
2023-02-24T05:32:04.702Z,3.09
2023-02-24T05:34:33.653Z,3.09
2023-02-24T05:37:04.509Z,3.09
2023-02-24T05:39:31.774Z,3.10
2023-02-24T05:42:05.356Z,3.09
2023-02-24T05:44:33.043Z,3.08
2023-02-24T05:47:00.757Z,3.06
2023-02-24T05:49:33.916Z,3.06
2023-02-24T05:52:10.139Z,3.05
2023-02-24T05:54:42.662Z,3.05
2023-02-24T05:57:13.561Z,3.03
2023-02-24T05:59:41.718Z,3.05
2023-02-24T06:02:13.127Z,3.04
2023-02-24T06:04:53.980Z,3.03
2023-02-24T06:07:27.865Z,3.03
2023-02-24T06:09:58.092Z,3.03
2023-02-24T06:12:28.741Z,3.02
2023-02-24T06:14:58.255Z,3.02
2023-02-24T06:17:26.533Z,3.02
2023-02-24T06:19:54.322Z,3.02
2023-02-24T06:22:23.670Z,3.02
2023-02-24T06:24:51.010Z,3.03
2023-02-24T06:27:19.618Z,3.04
2023-02-24T06:29:52.385Z,3.05
2023-02-24T06:32:23.971Z,3.06
2023-02-24T06:34:52.311Z,3.08
2023-02-24T06:37:20.397Z,3.06
2023-02-24T06:39:48.020Z,3.07
2023-02-24T06:42:16.626Z,3.09
2023-02-24T06:44:44.058Z,3.11
2023-02-24T06:47:13.901Z,3.10
2023-02-24T06:49:45.516Z,3.11
2023-02-24T06:52:18.607Z,3.12
2023-02-24T06:54:48.654Z,3.14
2023-02-24T06:57:15.957Z,3.16
2023-02-24T06:59:43.647Z,3.17
2023-02-24T07:02:11.267Z,3.19
2023-02-24T07:04:43.974Z,3.21
2023-02-24T07:07:14.823Z,3.21
2023-02-24T07:09:42.973Z,3.21
2023-02-24T07:12:11.374Z,3.22
2023-02-24T07:14:38.855Z,3.23
2023-02-24T07:17:06.346Z,3.23
2023-02-24T07:19:34.022Z,3.25
2023-02-24T07:22:03.893Z,3.27
2023-02-24T07:24:37.206Z,3.31
2023-02-24T07:27:23.151Z,3.35
2023-02-24T07:29:53.500Z,3.37
2023-02-24T07:32:25.620Z,3.39
2023-02-24T07:34:53.271Z,3.42
2023-02-24T07:37:21.158Z,3.43
2023-02-24T07:39:48.516Z,3.46
2023-02-24T07:42:15.831Z,3.48
2023-02-24T07:44:46.568Z,3.53
2023-02-24T07:47:15.891Z,3.56
2023-02-24T07:49:43.818Z,3.58
2023-02-24T07:52:11.669Z,3.60
2023-02-24T07:54:40.255Z,3.63
2023-02-24T07:57:14.458Z,3.65
2023-02-24T07:59:48.087Z,3.66
2023-02-24T08:05:20.070Z,3.70
2023-02-24T08:07:52.038Z,3.71
2023-02-24T08:10:27.039Z,3.74
2023-02-24T08:12:56.533Z,3.78
2023-02-24T08:15:26.644Z,3.81
2023-02-24T08:18:00.976Z,3.84
2023-02-24T08:20:51.213Z,3.84
2023-02-24T08:23:19.154Z,3.86
2023-02-24T08:25:46.838Z,3.86
2023-02-24T08:28:14.180Z,3.88
2023-02-24T08:30:47.218Z,3.89
2023-02-24T08:33:21.399Z,3.93
2023-02-24T08:36:01.107Z,3.95
2023-02-24T08:38:44.568Z,3.96
2023-02-24T08:41:18.384Z,3.99
2023-02-24T08:43:47.354Z,4.01
2023-02-24T08:46:18.765Z,4.02
2023-02-24T08:48:51.049Z,4.05
2023-02-24T08:51:43.909Z,4.07
2023-02-24T08:54:32.199Z,4.12
2023-02-24T08:57:08.448Z,4.15
2023-02-24T08:59:41.040Z,4.18
2023-02-24T09:02:23.370Z,4.24
2023-02-24T09:05:05.731Z,4.27
2023-02-24T09:07:40.832Z,4.32
2023-02-24T09:10:20.433Z,4.35
2023-02-24T09:12:51.301Z,4.39
2023-02-24T09:15:20.621Z,4.44
2023-02-24T09:17:47.902Z,4.47
2023-02-24T09:20:39.036Z,4.51
2023-02-24T09:23:11.005Z,4.56
2023-02-24T09:25:41.085Z,4.59
2023-02-24T09:28:18.583Z,4.61
2023-02-24T09:30:51.652Z,4.60
2023-02-24T09:33:26.706Z,4.63
2023-02-24T09:36:10.288Z,4.64
2023-02-24T09:39:01.740Z,4.67
2023-02-24T09:41:54.392Z,4.72
2023-02-24T09:44:33.685Z,4.77
2023-02-24T09:47:40.502Z,4.85
2023-02-24T09:50:14.132Z,4.94
2023-02-24T09:52:41.799Z,5.01
2023-02-24T09:55:27.642Z,5.11
2023-02-24T09:58:43.050Z,5.18
2023-02-24T10:01:33.930Z,5.36
2023-02-24T10:04:36.391Z,5.57
2023-02-24T10:07:17.198Z,5.68
2023-02-24T10:09:52.087Z,5.78
2023-02-24T10:12:29.397Z,5.90
2023-02-24T10:15:18.993Z,6.05
2023-02-24T10:17:52.382Z,6.22
2023-02-24T10:20:40.273Z,6.35
2023-02-24T10:23:10.910Z,6.38
2023-02-24T10:25:53.856Z,6.33
2023-02-24T10:28:36.587Z,6.27
2023-02-24T10:31:26.019Z,6.16
2023-02-24T10:34:06.474Z,6.12
2023-02-24T10:36:38.029Z,6.13
2023-02-24T10:39:20.847Z,6.11
2023-02-24T10:41:57.324Z,6.11
2023-02-24T10:44:36.470Z,6.18
2023-02-24T10:47:13.209Z,6.31
2023-02-24T10:49:58.143Z,6.43
2023-02-24T10:52:48.062Z,6.51
2023-02-24T10:55:32.576Z,6.56
2023-02-24T10:58:06.760Z,6.57
2023-02-24T11:00:59.789Z,6.61
2023-02-24T11:03:43.458Z,6.74
2023-02-24T11:06:40.828Z,6.85
2023-02-24T11:09:29.530Z,6.97
2023-02-24T11:12:18.808Z,7.09
2023-02-24T11:15:11.692Z,7.11
2023-02-24T11:17:57.333Z,7.13
2023-02-24T11:20:42.283Z,7.22
2023-02-24T11:23:39.618Z,7.29
2023-02-24T11:26:18.465Z,7.01
2023-02-24T11:29:12.193Z,6.78
2023-02-24T11:32:02.808Z,6.66
2023-02-24T11:34:51.754Z,6.59
2023-02-24T11:37:38.040Z,6.62
2023-02-24T11:40:15.629Z,6.68
2023-02-24T11:42:53.570Z,6.74
2023-02-24T11:45:51.159Z,6.81
2023-02-24T11:48:32.172Z,6.88
2023-02-24T11:51:11.611Z,6.88
2023-02-24T11:54:07.693Z,6.91
2023-02-24T11:56:59.238Z,6.96
2023-02-24T11:59:55.966Z,7.00
2023-02-24T12:02:47.703Z,7.04
2023-02-24T12:05:19.161Z,7.06
2023-02-24T12:07:57.712Z,6.92
2023-02-24T12:10:30.244Z,6.74
2023-02-24T12:13:11.245Z,6.62
2023-02-24T12:15:48.779Z,6.47
2023-02-24T12:18:43.794Z,6.39
2023-02-24T12:21:25.634Z,6.34
2023-02-24T12:23:53.773Z,6.31
2023-02-24T12:26:29.929Z,6.32
2023-02-24T12:29:24.640Z,6.34
2023-02-24T12:32:30.448Z,6.36
2023-02-24T12:35:24.734Z,6.37
2023-02-24T12:38:29.090Z,6.41
2023-02-24T12:41:39.901Z,6.49
2023-02-24T12:44:29.895Z,6.57
2023-02-24T12:47:24.967Z,6.63
2023-02-24T12:50:10.679Z,6.71
2023-02-24T12:52:49.668Z,6.85
2023-02-24T12:56:01.657Z,7.01
2023-02-24T12:58:34.880Z,7.05
2023-02-24T13:01:25.914Z,7.02
2023-02-24T13:04:15.404Z,7.00
2023-02-24T13:06:51.822Z,6.98
2023-02-24T13:09:29.308Z,6.97
2023-02-24T13:12:21.302Z,6.97
2023-02-24T13:14:49.663Z,6.97
2023-02-24T13:17:20.935Z,7.02
2023-02-24T13:19:49.684Z,6.99
2023-02-24T13:22:22.334Z,6.97
2023-02-24T13:25:19.400Z,6.95
2023-02-24T13:27:56.141Z,6.90
2023-02-24T13:30:28.965Z,6.93
2023-02-24T13:33:18.073Z,6.96
2023-02-24T13:35:52.172Z,7.02
2023-02-24T13:38:22.865Z,7.05
2023-02-24T13:40:51.332Z,7.00
2023-02-24T13:43:31.052Z,6.90
2023-02-24T13:46:01.787Z,6.77
2023-02-24T13:48:29.867Z,6.66
2023-02-24T13:51:00.320Z,6.57
2023-02-24T13:53:35.207Z,6.50
2023-02-24T13:56:17.724Z,6.42
2023-02-24T13:59:01.979Z,6.37
2023-02-24T14:01:32.999Z,6.37
2023-02-24T14:04:16.835Z,6.42
2023-02-24T14:06:52.274Z,6.28
2023-02-24T14:09:26.984Z,6.19
2023-02-24T14:12:14.337Z,6.14
2023-02-24T14:14:44.511Z,6.11
2023-02-24T14:17:26.541Z,6.10
2023-02-24T14:19:57.894Z,6.14
2023-02-24T14:22:29.637Z,6.16
2023-02-24T14:25:11.369Z,6.21
2023-02-24T14:27:40.952Z,6.18
2023-02-24T14:30:35.553Z,6.03
2023-02-24T14:33:04.938Z,5.92
2023-02-24T14:35:42.117Z,5.85
2023-02-24T14:38:32.059Z,5.85
2023-02-24T14:41:26.009Z,5.82
2023-02-24T14:44:08.069Z,5.82
2023-02-24T14:47:46.436Z,5.86
2023-02-24T14:50:40.904Z,5.90
2023-02-24T14:53:16.684Z,5.91
2023-02-24T14:55:50.773Z,5.92
2023-02-24T14:58:21.095Z,5.96
2023-02-24T15:00:51.464Z,6.02
2023-02-24T15:03:30.676Z,6.02
2023-02-24T15:06:07.576Z,6.06
2023-02-24T15:08:42.943Z,6.08
2023-02-24T15:11:16.394Z,6.09
2023-02-24T15:13:51.278Z,6.07
2023-02-24T15:16:25.292Z,6.06
2023-02-24T15:18:56.125Z,6.06
2023-02-24T15:21:36.347Z,6.05
2023-02-24T15:24:19.095Z,6.02
2023-02-24T15:26:59.110Z,5.97
2023-02-24T15:29:30.917Z,5.89
2023-02-24T15:32:00.399Z,5.83
2023-02-24T15:34:35.751Z,5.79
2023-02-24T15:37:14.809Z,5.73
2023-02-24T15:39:44.339Z,5.69
2023-02-24T15:42:38.957Z,5.66
2023-02-24T15:45:21.970Z,5.64
2023-02-24T15:47:56.646Z,5.64
2023-02-24T15:50:24.453Z,5.64
2023-02-24T15:52:51.898Z,5.62
2023-02-24T15:55:20.803Z,5.59
2023-02-24T15:58:03.390Z,5.58
2023-02-24T16:00:31.758Z,5.56
2023-02-24T16:02:59.289Z,5.54
2023-02-24T16:05:26.827Z,5.42
2023-02-24T16:07:55.059Z,5.35
2023-02-24T16:10:29.427Z,5.25
2023-02-24T16:12:59.803Z,5.16
2023-02-24T16:15:50.414Z,5.07
2023-02-24T16:18:26.918Z,5.00
2023-02-24T16:20:57.069Z,4.91
2023-02-24T16:23:26.194Z,4.86
2023-02-24T16:26:02.386Z,4.82
2023-02-24T16:28:31.807Z,4.75
2023-02-24T16:30:59.455Z,4.75
2023-02-24T16:33:29.135Z,4.74
2023-02-24T16:35:56.767Z,4.72
2023-02-24T16:38:26.992Z,4.69
2023-02-24T16:40:56.326Z,4.68
2023-02-24T16:43:25.003Z,4.68
2023-02-24T16:45:55.509Z,4.70
2023-02-24T16:48:26.326Z,4.69
2023-02-24T16:50:53.997Z,4.66
2023-02-24T16:53:24.128Z,4.62
2023-02-24T16:55:52.094Z,4.61
2023-02-24T16:58:19.769Z,4.61
2023-02-24T17:00:52.417Z,4.57
2023-02-24T17:03:43.459Z,4.59
2023-02-24T17:06:13.690Z,4.61
2023-02-24T17:08:46.134Z,4.61
2023-02-24T17:11:16.755Z,4.58
2023-02-24T17:13:44.498Z,4.56
2023-02-24T17:16:14.710Z,4.51
2023-02-24T17:18:44.572Z,4.50
2023-02-24T17:21:16.835Z,4.47
2023-02-24T17:23:44.754Z,4.45
2023-02-24T17:26:16.137Z,4.42
2023-02-24T17:28:44.878Z,4.41
2023-02-24T17:31:14.289Z,4.41
2023-02-24T17:33:41.997Z,4.44
2023-02-24T17:36:09.437Z,4.45
2023-02-24T17:38:36.703Z,4.47
2023-02-24T17:41:04.316Z,4.51
2023-02-24T17:43:34.302Z,4.55
2023-02-24T17:46:03.220Z,4.61
2023-02-24T17:48:34.479Z,4.64
2023-02-24T17:51:01.895Z,4.66
2023-02-24T17:53:29.746Z,4.64
2023-02-24T17:56:05.145Z,4.60
2023-02-24T17:58:35.817Z,4.57
2023-02-24T18:01:03.625Z,4.54
2023-02-24T18:03:32.032Z,4.53
2023-02-24T18:06:12.051Z,4.52
2023-02-24T18:08:40.875Z,4.51
2023-02-24T18:11:10.955Z,4.52
2023-02-24T18:13:40.427Z,4.53
2023-02-24T18:16:13.192Z,4.57
2023-02-24T18:18:41.133Z,4.59
2023-02-24T18:21:08.866Z,4.62
2023-02-24T18:23:40.127Z,4.65
2023-02-24T18:26:09.797Z,4.68
2023-02-24T18:28:37.798Z,4.66
2023-02-24T18:31:17.559Z,4.62
2023-02-24T18:33:45.117Z,4.56
2023-02-24T18:36:14.249Z,4.55
2023-02-24T18:38:42.066Z,4.53
2023-02-24T18:41:12.808Z,4.51
2023-02-24T18:43:40.088Z,4.48
2023-02-24T18:46:11.042Z,4.44
2023-02-24T18:48:40.208Z,4.35
2023-02-24T18:51:10.838Z,4.23
2023-02-24T18:53:40.706Z,4.12
2023-02-24T18:56:11.340Z,4.07
2023-02-24T18:58:40.799Z,4.06
2023-02-24T19:01:17.558Z,4.07
2023-02-24T19:03:44.895Z,4.10
2023-02-24T19:06:12.761Z,4.14
2023-02-24T19:08:41.952Z,4.20
2023-02-24T19:11:18.191Z,4.26
2023-02-24T19:13:47.836Z,4.30
2023-02-24T19:16:16.575Z,4.35
2023-02-24T19:18:44.374Z,4.39
2023-02-24T19:21:11.895Z,4.43
2023-02-24T19:23:41.136Z,4.43
2023-02-24T19:26:21.959Z,4.32
2023-02-24T19:28:51.338Z,4.18
2023-02-24T19:31:24.535Z,4.08
2023-02-24T19:33:56.772Z,3.97
2023-02-24T19:36:24.731Z,3.90
2023-02-24T19:38:52.612Z,3.85
2023-02-24T19:41:20.362Z,3.81
2023-02-24T19:43:48.068Z,3.77
2023-02-24T19:46:16.604Z,3.72
2023-02-24T19:48:44.428Z,3.70
2023-02-24T19:51:16.832Z,3.67
2023-02-24T19:53:44.381Z,3.66
2023-02-24T19:56:11.752Z,3.65
2023-02-24T19:58:40.623Z,3.65
2023-02-24T20:01:11.875Z,3.68
2023-02-24T20:03:45.349Z,3.74
2023-02-24T20:06:26.139Z,3.77
2023-02-24T20:08:54.156Z,3.81
2023-02-24T20:11:23.231Z,3.83
2023-02-24T20:13:53.310Z,3.86
2023-02-24T20:16:26.616Z,3.88
2023-02-24T20:18:55.434Z,3.93
2023-02-24T20:21:23.137Z,3.95
2023-02-24T20:23:51.295Z,3.97
2023-02-24T20:26:19.429Z,3.98
2023-02-24T20:28:48.264Z,3.98
2023-02-24T20:31:19.905Z,3.98
2023-02-24T20:33:49.659Z,4.00
2023-02-24T20:36:20.642Z,4.01
2023-02-24T20:38:49.271Z,4.01
2023-02-24T20:41:17.701Z,4.01
2023-02-24T20:43:45.223Z,4.04
2023-02-24T20:46:16.270Z,4.06
2023-02-24T20:48:45.079Z,4.07
2023-02-24T20:51:12.610Z,4.09
2023-02-24T20:53:56.739Z,4.11
2023-02-24T20:56:33.064Z,4.14
2023-02-24T20:59:05.559Z,4.14
2023-02-24T21:01:34.061Z,4.08
2023-02-24T21:04:04.377Z,4.04
2023-02-24T21:06:32.446Z,3.97
2023-02-24T21:09:00.216Z,3.90
2023-02-24T21:11:30.132Z,3.85
2023-02-24T21:13:58.613Z,3.82
2023-02-24T21:16:27.027Z,3.84
2023-02-24T21:19:03.703Z,3.89
2023-02-24T21:21:31.002Z,3.97
2023-02-24T21:24:05.364Z,4.02
2023-02-24T21:26:32.788Z,4.02
2023-02-24T21:29:02.278Z,4.00
2023-02-24T21:31:30.178Z,3.97
2023-02-24T21:33:57.591Z,3.95
2023-02-24T21:36:30.842Z,3.92
2023-02-24T21:38:59.452Z,3.92
2023-02-24T21:41:26.905Z,3.91
2023-02-24T21:43:55.540Z,3.92
2023-02-24T21:46:25.866Z,3.91
2023-02-24T21:48:58.317Z,3.94
2023-02-24T21:51:26.991Z,3.95
2023-02-24T21:53:59.328Z,3.98
2023-02-24T21:56:29.231Z,4.00
2023-02-24T21:59:03.424Z,4.02
2023-02-24T22:01:33.934Z,4.03
2023-02-24T22:04:03.873Z,4.03
2023-02-24T22:06:33.960Z,4.05
2023-02-24T22:09:03.315Z,4.06
2023-02-24T22:11:32.477Z,4.05
2023-02-24T22:13:59.755Z,4.05
2023-02-24T22:16:27.983Z,4.04
2023-02-24T22:18:56.478Z,4.00
2023-02-24T22:21:30.583Z,3.93
2023-02-24T22:24:00.806Z,3.86
2023-02-24T22:26:30.020Z,3.82
2023-02-24T22:28:59.067Z,3.79
2023-02-24T22:31:32.300Z,3.76
2023-02-24T22:34:00.914Z,3.76
2023-02-24T22:36:31.724Z,3.75
2023-02-24T22:39:00.233Z,3.78
2023-02-24T22:41:31.365Z,3.80
2023-02-24T22:43:59.993Z,3.84
2023-02-24T22:46:30.481Z,3.87
2023-02-24T22:48:58.009Z,3.90
2023-02-24T22:51:25.862Z,3.92
2023-02-24T22:53:54.999Z,3.93
2023-02-24T22:56:28.641Z,3.94
2023-02-24T22:58:56.750Z,3.97
2023-02-24T23:01:33.456Z,3.99
2023-02-24T23:04:05.735Z,4.00
2023-02-24T23:06:43.641Z,4.02
2023-02-24T23:09:13.321Z,4.03
2023-02-24T23:11:41.767Z,4.04
2023-02-24T23:14:14.160Z,4.06
2023-02-24T23:16:44.413Z,4.08
2023-02-24T23:19:16.352Z,4.13
2023-02-24T23:21:50.991Z,4.14
2023-02-24T23:24:19.904Z,4.04
2023-02-24T23:26:54.484Z,3.96
2023-02-24T23:29:24.011Z,3.82
2023-02-24T23:31:52.956Z,3.77
2023-02-24T23:34:20.696Z,3.65
2023-02-24T23:36:50.657Z,3.58
2023-02-24T23:39:23.210Z,3.55
2023-02-24T23:41:57.494Z,3.42
2023-02-24T23:44:25.352Z,3.35
2023-02-24T23:46:52.591Z,3.32
2023-02-24T23:49:19.857Z,3.30
2023-02-24T23:51:48.980Z,3.29
2023-02-24T23:54:18.161Z,3.29
2023-02-24T23:56:46.682Z,3.30
2023-02-24T23:59:14.823Z,3.31
